Time;durP1;ratioP1;P1;durP2;ratioP2;P2;SDS_P1;SDS_P2;PMS_P1;PMS_P2;Temp;Humidity;BMP_temperature;BMP_pressure;BME280_temperature;BME280_humidity;BME280_pressure;Samples;Min_cycle;Max_cycle;Signal;HPM_P1;HPM_P2
2021/04/30 00:01:43;;;;;;;29.02;16.50;;;7.40;79.50;;;;;;5093254;28;20028;-35
2021/04/30 00:04:09;;;;;;;33.58;17.25;;;7.40;79.80;;;;;;5093417;28;20082;-35
2021/04/30 00:06:35;;;;;;;25.33;16.35;;;7.40;79.80;;;;;;5093196;28;20043;-34
2021/04/30 00:09:00;;;;;;;26.30;15.77;;;7.30;80.10;;;;;;5093649;28;20061;-37
2021/04/30 00:11:26;;;;;;;25.33;17.58;;;7.40;80.40;;;;;;5093410;28;20024;-35
2021/04/30 00:13:52;;;;;;;32.85;18.05;;;7.30;80.10;;;;;;5093073;28;20536;-35
2021/04/30 00:16:18;;;;;;;27.60;18.17;;;7.40;80.10;;;;;;5093135;28;20476;-35
2021/04/30 00:18:43;;;;;;;32.60;19.42;;;7.40;80.50;;;;;;5093476;28;20430;-35
2021/04/30 00:21:09;;;;;;;30.98;19.88;;;7.30;81.20;;;;;;5093359;28;20103;-34
2021/04/30 00:23:35;;;;;;;30.90;19.20;;;7.30;81.60;;;;;;5093313;28;20062;-34
2021/04/30 00:26:03;;;;;;;36.75;20.95;;;7.40;81.70;;;;;;5093016;28;20467;-36
2021/04/30 00:28:29;;;;;;;35.50;18.10;;;7.30;81.90;;;;;;5093413;28;20409;-37
2021/04/30 00:30:56;;;;;;;29.40;18.48;;;7.40;82.00;;;;;;5092749;28;20021;-35
2021/04/30 00:33:23;;;;;;;36.15;19.02;;;7.50;81.80;;;;;;5092869;28;20052;-35
2021/04/30 00:35:49;;;;;;;33.38;18.35;;;7.60;81.60;;;;;;5092865;28;20024;-36
2021/04/30 00:38:15;;;;;;;32.13;20.27;;;7.50;82.10;;;;;;5093303;28;20047;-36
2021/04/30 00:40:41;;;;;;;28.33;17.88;;;7.50;82.10;;;;;;5093343;28;20032;-36
2021/04/30 00:43:07;;;;;;;32.42;19.23;;;7.70;81.60;;;;;;5092919;28;20029;-36
2021/04/30 00:45:33;;;;;;;36.17;19.42;;;7.60;81.70;;;;;;5095486;28;20043;-34
2021/04/30 00:47:59;;;;;;;33.83;19.33;;;7.60;81.70;;;;;;5095518;28;20020;-37
2021/04/30 00:50:26;;;;;;;32.40;18.90;;;7.80;81.60;;;;;;5097218;28;20052;-35
2021/04/30 00:52:52;;;;;;;32.50;18.50;;;7.70;81.60;;;;;;5096617;28;20024;-36
2021/04/30 00:55:19;;;;;;;36.38;22.05;;;7.70;81.60;;;;;;5096427;28;20028;-34
2021/04/30 00:58:03;;;;;;;36.78;19.50;;;7.80;81.40;;;;;;5096382;28;20077;-35
2021/04/30 01:00:32;;;;;;;38.17;20.95;;;7.70;81.80;;;;;;5096757;28;20043;-35
2021/04/30 01:02:57;;;;;;;33.90;21.85;;;7.70;82.40;;;;;;5097210;28;20028;-36
2021/04/30 01:05:24;;;;;;;30.45;21.35;;;7.70;82.30;;;;;;5096647;28;20117;-35
2021/04/30 01:07:51;;;;;;;30.90;20.92;;;7.70;82.40;;;;;;5096464;28;20024;-37
2021/04/30 01:10:17;;;;;;;36.92;22.40;;;7.40;83.70;;;;;;5096107;28;20103;-35
2021/04/30 01:12:44;;;;;;;40.72;22.52;;;7.50;83.40;;;;;;5096492;28;20108;-36
2021/04/30 01:15:12;;;;;;;40.75;22.20;;;7.40;84.10;;;;;;5095960;28;20020;-36
2021/04/30 01:17:38;;;;;;;34.55;21.65;;;7.50;83.80;;;;;;5095955;28;20024;-36
2021/04/30 01:20:06;;;;;;;40.55;23.08;;;7.60;83.50;;;;;;5095924;28;20093;-35
2021/04/30 01:22:43;;;;;;;36.08;21.08;;;7.60;83.80;;;;;;5096051;28;20372;-35
2021/04/30 01:25:13;;;;;;;48.90;21.30;;;7.50;83.90;;;;;;5096526;28;20108;-35
2021/04/30 01:27:39;;;;;;;;;;;7.40;84.10;;;;;;5095043;28;20333;-36
2021/04/30 01:30:13;;;;;;;33.30;22.08;;;7.40;83.80;;;;;;5096053;28;19926;-35
2021/04/30 01:32:38;;;;;;;30.35;21.20;;;7.50;83.60;;;;;;5095761;28;20429;-35
2021/04/30 01:35:06;;;;;;;31.60;20.65;;;7.50;83.50;;;;;;5095955;28;20103;-35
2021/04/30 01:37:32;;;;;;;40.78;21.15;;;7.30;84.30;;;;;;5095504;28;20031;-34
2021/04/30 01:39:58;;;;;;;36.63;23.65;;;7.30;84.30;;;;;;5096091;28;20040;-35
2021/04/30 01:42:24;;;;;;;42.65;21.65;;;7.30;84.10;;;;;;5095410;28;20036;-35
2021/04/30 01:44:49;;;;;;;41.00;24.60;;;7.30;84.40;;;;;;5095511;28;20024;-35
2021/04/30 01:47:16;;;;;;;31.38;22.70;;;7.40;83.90;;;;;;5095781;28;20572;-35
2021/04/30 01:49:42;;;;;;;38.70;23.10;;;7.40;84.00;;;;;;5095296;28;20068;-35
2021/04/30 01:52:08;;;;;;;39.13;24.33;;;7.30;84.40;;;;;;5095472;28;20061;-35
2021/04/30 01:54:33;;;;;;;44.13;24.73;;;7.30;84.50;;;;;;5095587;28;20032;-35
2021/04/30 01:56:59;;;;;;;44.95;25.45;;;7.30;84.40;;;;;;5096145;28;20448;-35
2021/04/30 01:59:25;;;;;;;50.70;24.98;;;7.20;84.60;;;;;;5095691;28;20103;-34
2021/04/30 02:01:50;;;;;;;50.00;26.98;;;7.30;84.70;;;;;;5095107;28;20443;-34
2021/04/30 02:04:16;;;;;;;46.60;26.73;;;7.30;84.30;;;;;;5095544;28;20123;-36
2021/04/30 02:06:44;;;;;;;46.10;27.73;;;7.40;83.80;;;;;;5093714;28;20024;-35
2021/04/30 02:09:10;;;;;;;47.28;26.60;;;7.40;83.50;;;;;;5095084;28;20024;-35
2021/04/30 02:11:36;;;;;;;50.15;25.27;;;7.40;83.70;;;;;;5094991;28;20027;-35
2021/04/30 02:14:03;;;;;;;45.85;27.55;;;7.30;83.80;;;;;;5095299;28;20029;-35
2021/04/30 02:16:30;;;;;;;46.67;25.48;;;7.50;83.40;;;;;;5095104;28;20028;-35
2021/04/30 02:18:56;;;;;;;45.35;27.60;;;7.30;83.50;;;;;;5094949;28;20028;-35
2021/04/30 02:21:21;;;;;;;37.42;25.95;;;7.40;83.40;;;;;;5094206;28;20114;-34
2021/04/30 02:23:47;;;;;;;56.53;28.30;;;7.30;84.00;;;;;;5094722;28;20111;-35
2021/04/30 02:26:15;;;;;;;56.97;29.15;;;7.30;83.70;;;;;;5094645;28;20031;-34
2021/04/30 02:28:42;;;;;;;44.38;28.08;;;7.30;84.30;;;;;;5094654;28;20088;-34
2021/04/30 02:31:08;;;;;;;55.22;27.55;;;7.30;83.80;;;;;;5094799;28;20024;-35
2021/04/30 02:33:34;;;;;;;48.92;27.98;;;7.30;84.00;;;;;;5094495;28;20032;-36
2021/04/30 02:35:59;;;;;;;46.33;27.00;;;7.30;83.80;;;;;;5094413;28;20025;-35
2021/04/30 02:38:25;;;;;;;46.13;27.98;;;7.30;84.10;;;;;;5094298;28;20031;-35
2021/04/30 02:40:52;;;;;;;57.53;30.00;;;7.50;83.50;;;;;;5094460;28;20103;-34
2021/04/30 02:43:21;;;;;;;71.10;35.13;;;7.40;83.80;;;;;;5094410;28;20039;-34
2021/04/30 02:45:51;;;;;;;67.28;36.25;;;7.40;83.70;;;;;;5094441;28;20058;-34
2021/04/30 02:48:25;;;;;;;56.23;33.97;;;7.30;84.20;;;;;;5094213;28;20032;-34
2021/04/30 02:50:51;;;;;;;60.42;33.70;;;7.40;84.10;;;;;;5093985;28;20123;-34
2021/04/30 02:53:16;;;;;;;62.33;34.55;;;7.50;83.80;;;;;;5094529;28;20052;-34
2021/04/30 02:55:42;;;;;;;63.63;35.88;;;7.30;84.60;;;;;;5094078;28;20385;-35
2021/04/30 02:58:09;;;;;;;56.30;34.15;;;7.40;84.30;;;;;;5094203;28;20024;-35
2021/04/30 03:00:35;;;;;;;54.83;32.75;;;7.40;84.70;;;;;;5093956;28;20103;-35
2021/04/30 03:03:02;;;;;;;65.03;32.92;;;7.40;84.30;;;;;;5093827;28;20199;-35
2021/04/30 03:05:28;;;;;;;55.70;29.45;;;7.40;84.80;;;;;;5093836;28;20048;-35
2021/04/30 03:07:54;;;;;;;54.15;30.30;;;7.20;85.10;;;;;;5093378;28;20468;-34
2021/04/30 03:10:20;;;;;;;59.65;32.17;;;7.40;84.90;;;;;;5093687;28;20022;-35
2021/04/30 03:12:48;;;;;;;60.78;31.10;;;7.50;84.80;;;;;;5094029;28;20032;-35
2021/04/30 03:15:16;;;;;;;57.85;31.13;;;7.50;84.70;;;;;;5094241;28;20408;-35
2021/04/30 03:17:45;;;;;;;61.35;30.15;;;7.50;84.70;;;;;;5093949;28;20440;-35
2021/04/30 03:20:12;;;;;;;57.83;30.75;;;7.40;85.30;;;;;;5093599;28;20088;-35
2021/04/30 03:22:38;;;;;;;59.22;32.00;;;7.20;86.00;;;;;;5093635;28;20099;-34
2021/04/30 03:25:05;;;;;;;53.97;29.88;;;7.30;85.60;;;;;;5093698;28;20157;-35
2021/04/30 03:27:31;;;;;;;57.67;30.58;;;7.40;85.50;;;;;;5093510;28;20012;-35
2021/04/30 03:29:56;;;;;;;45.55;29.33;;;7.40;85.40;;;;;;5093893;28;20020;-35
2021/04/30 03:32:23;;;;;;;59.67;32.38;;;7.30;86.20;;;;;;5093547;28;20016;-35
2021/04/30 03:34:49;;;;;;;56.58;29.05;;;7.30;86.00;;;;;;5093559;28;20103;-35
2021/04/30 03:37:14;;;;;;;57.47;31.70;;;7.30;86.00;;;;;;5093519;28;20066;-34
2021/04/30 03:39:40;;;;;;;54.20;32.45;;;7.40;85.90;;;;;;5093447;28;20383;-36
2021/04/30 03:42:06;;;;;;;60.75;32.53;;;7.50;85.70;;;;;;5092112;28;20029;-36
2021/04/30 03:44:31;;;;;;;50.88;30.55;;;7.40;86.30;;;;;;5093631;28;20028;-36
2021/04/30 03:46:57;;;;;;;55.35;33.17;;;7.40;86.20;;;;;;5093362;28;20031;-35
2021/04/30 03:49:23;;;;;;;55.45;32.47;;;7.50;86.20;;;;;;5093327;28;20044;-35
2021/04/30 03:51:50;;;;;;;55.92;31.75;;;7.40;86.00;;;;;;5094428;28;20353;-35
2021/04/30 03:54:17;;;;;;;57.72;32.45;;;7.60;85.40;;;;;;5093284;28;20028;-35
2021/04/30 03:56:42;;;;;;;64.13;33.30;;;7.50;85.40;;;;;;5093283;28;20028;-36
2021/04/30 03:59:08;;;;;;;64.55;35.60;;;7.50;85.90;;;;;;5093150;28;20020;-35
2021/04/30 04:01:34;;;;;;;67.68;36.50;;;7.50;85.60;;;;;;5091909;28;20543;-35
2021/04/30 04:03:59;;;;;;;62.85;33.05;;;7.30;86.00;;;;;;5093238;28;20032;-35
2021/04/30 04:06:25;;;;;;;63.13;35.13;;;7.40;85.80;;;;;;5093173;28;20046;-35
2021/04/30 04:08:51;;;;;;;65.22;36.17;;;7.30;86.00;;;;;;5093428;28;20400;-35
2021/04/30 04:11:17;;;;;;;68.70;36.92;;;7.30;86.20;;;;;;5093004;28;20055;-35
2021/04/30 04:13:42;;;;;;;68.65;33.88;;;7.30;86.50;;;;;;5093564;28;20020;-35
2021/04/30 04:16:08;;;;;;;66.97;36.35;;;7.30;86.50;;;;;;5091847;28;20032;-35
2021/04/30 04:18:34;;;;;;;86.82;36.50;;;7.30;86.50;;;;;;5094526;28;20368;-35
2021/04/30 04:20:59;;;;;;;84.05;42.72;;;7.30;86.50;;;;;;5097028;28;20388;-36
2021/04/30 04:23:25;;;;;;;98.93;47.67;;;7.10;87.20;;;;;;5097461;28;20448;-35
2021/04/30 04:25:51;;;;;;;89.25;43.40;;;7.30;86.80;;;;;;5097162;28;20511;-35
2021/04/30 04:28:16;;;;;;;84.38;43.83;;;7.30;86.90;;;;;;5096955;28;20076;-35
2021/04/30 04:30:43;;;;;;;90.90;43.35;;;7.30;86.80;;;;;;5097658;28;20020;-35
2021/04/30 04:33:08;;;;;;;80.78;42.10;;;7.30;86.50;;;;;;5096842;28;20064;-35
2021/04/30 04:35:34;;;;;;;80.93;43.47;;;7.30;87.00;;;;;;5096710;28;20024;-35
2021/04/30 04:38:00;;;;;;;102.25;45.75;;;7.30;87.20;;;;;;5096701;28;20103;-35
2021/04/30 04:40:26;;;;;;;90.53;45.20;;;7.30;87.40;;;;;;5096947;28;20056;-36
2021/04/30 04:42:52;;;;;;;86.80;45.13;;;7.30;87.00;;;;;;5096569;28;20423;-34
2021/04/30 04:45:19;;;;;;;117.35;50.40;;;7.30;87.00;;;;;;5096522;28;20025;-35
2021/04/30 04:47:45;;;;;;;97.80;45.22;;;7.50;86.80;;;;;;5095316;28;20035;-34
2021/04/30 04:50:12;;;;;;;76.07;40.65;;;7.30;86.80;;;;;;5096301;28;20083;-34
2021/04/30 04:52:39;;;;;;;71.40;36.63;;;7.30;86.90;;;;;;5096669;28;20020;-34
2021/04/30 04:55:06;;;;;;;67.40;36.13;;;7.30;86.60;;;;;;5097168;28;20081;-35
2021/04/30 04:57:33;;;;;;;76.80;39.72;;;7.30;86.60;;;;;;5096291;28;20044;-35
2021/04/30 04:59:59;;;;;;;64.07;36.20;;;7.30;86.10;;;;;;5096390;28;20016;-35
2021/04/30 05:02:25;;;;;;;69.50;37.50;;;7.30;85.90;;;;;;5096930;28;20361;-35
2021/04/30 05:04:50;;;;;;;59.88;36.78;;;7.30;85.40;;;;;;5096600;28;20028;-35
2021/04/30 05:07:16;;;;;;;69.80;36.67;;;7.20;86.30;;;;;;5094956;28;20442;-35
2021/04/30 05:09:42;;;;;;;76.70;40.13;;;7.20;86.10;;;;;;5096367;28;20433;-38
2021/04/30 05:12:08;;;;;;;75.63;39.13;;;7.30;85.90;;;;;;5096202;28;20024;-35
2021/04/30 05:14:33;;;;;;;86.93;40.72;;;7.20;86.10;;;;;;5096304;28;20387;-35
2021/04/30 05:16:59;;;;;;;83.30;43.88;;;7.40;85.80;;;;;;5095951;28;20032;-36
2021/04/30 05:19:25;;;;;;;81.45;44.17;;;7.60;85.00;;;;;;5095766;28;20024;-35
2021/04/30 05:21:50;;;;;;;82.38;41.13;;;7.50;85.00;;;;;;5096245;28;20030;-34
2021/04/30 05:24:16;;;;;;;91.97;43.67;;;7.30;85.80;;;;;;5095787;28;20073;-35
2021/04/30 05:26:42;;;;;;;93.32;45.25;;;7.30;85.80;;;;;;5096036;28;20448;-35
2021/04/30 05:29:08;;;;;;;95.50;48.38;;;7.30;85.70;;;;;;5095584;28;20080;-35
2021/04/30 05:31:35;;;;;;;100.95;47.97;;;7.30;86.10;;;;;;5094803;28;20107;-35
2021/04/30 05:34:02;;;;;;;97.72;45.58;;;7.20;86.10;;;;;;5095272;28;20031;-34
2021/04/30 05:36:27;;;;;;;93.50;45.50;;;7.30;86.00;;;;;;5095319;28;20093;-35
2021/04/30 05:38:53;;;;;;;84.57;42.45;;;7.30;85.90;;;;;;5095706;28;20078;-37
2021/04/30 05:41:19;;;;;;;90.00;44.22;;;7.50;85.00;;;;;;5094732;28;20430;-35
2021/04/30 05:43:45;;;;;;;105.93;45.53;;;7.60;84.60;;;;;;5094965;28;20039;-35
2021/04/30 05:46:10;;;;;;;89.43;38.95;;;7.50;85.00;;;;;;5095402;28;20028;-36
2021/04/30 05:48:36;;;;;;;89.75;42.60;;;7.50;84.80;;;;;;5095279;28;20069;-36
2021/04/30 05:51:02;;;;;;;82.68;44.80;;;7.40;85.20;;;;;;5093965;28;20115;-35
2021/04/30 05:53:27;;;;;;;92.60;45.70;;;7.40;85.40;;;;;;5095054;28;20049;-36
2021/04/30 05:55:53;;;;;;;109.07;49.60;;;7.50;85.10;;;;;;5095077;28;20035;-35
2021/04/30 05:58:19;;;;;;;98.97;50.20;;;7.50;85.10;;;;;;5095262;28;20032;-35
2021/04/30 06:00:45;;;;;;;90.28;46.40;;;7.60;84.40;;;;;;5095317;28;20052;-34
2021/04/30 06:03:10;;;;;;;92.22;47.30;;;7.70;84.20;;;;;;5094564;28;20020;-36
2021/04/30 06:05:36;;;;;;;97.40;46.05;;;7.70;84.20;;;;;;5094887;28;20357;-35
2021/04/30 06:08:02;;;;;;;118.00;51.25;;;7.60;84.70;;;;;;5095043;28;20060;-34
2021/04/30 06:10:28;;;;;;;95.22;48.03;;;7.80;84.10;;;;;;5095052;28;20031;-34
2021/04/30 06:12:53;;;;;;;104.22;48.28;;;7.50;85.20;;;;;;5094706;28;20058;-35
2021/04/30 06:15:19;;;;;;;117.82;55.03;;;7.60;84.90;;;;;;5094710;28;20024;-34
2021/04/30 06:17:45;;;;;;;98.00;46.55;;;7.50;85.50;;;;;;5095122;28;20391;-35
2021/04/30 06:20:11;;;;;;;118.20;54.22;;;7.30;85.60;;;;;;5093476;28;20038;-35
2021/04/30 06:22:37;;;;;;;118.00;54.78;;;7.20;86.70;;;;;;5094340;28;20433;-35
2021/04/30 06:25:04;;;;;;;111.10;52.97;;;7.40;86.30;;;;;;5094114;28;20024;-35
2021/04/30 06:27:29;;;;;;;123.95;52.45;;;7.30;86.20;;;;;;5093999;28;20021;-35
2021/04/30 06:29:55;;;;;;;133.07;57.08;;;7.50;86.00;;;;;;5093922;28;20016;-36
2021/04/30 06:32:20;;;;;;;130.95;58.13;;;7.40;85.80;;;;;;5094424;28;20093;-35
2021/04/30 06:34:46;;;;;;;146.38;61.20;;;7.30;86.30;;;;;;5093584;28;20345;-35
2021/04/30 06:37:12;;;;;;;146.77;61.60;;;7.30;86.80;;;;;;5094112;28;20024;-45
2021/04/30 06:39:38;;;;;;;134.85;56.58;;;7.30;86.60;;;;;;5092540;28;20437;-35
2021/04/30 06:42:04;;;;;;;138.85;56.75;;;7.30;86.50;;;;;;5092969;28;20032;-35
2021/04/30 06:44:31;;;;;;;125.70;60.80;;;7.50;86.40;;;;;;5095153;28;20042;-35
2021/04/30 06:46:58;;;;;;;125.85;55.63;;;7.50;85.60;;;;;;5094223;28;20142;-35
2021/04/30 06:49:24;;;;;;;127.60;60.50;;;7.40;86.10;;;;;;5093657;28;20388;-35
2021/04/30 06:51:49;;;;;;;135.23;56.45;;;7.50;86.10;;;;;;5093907;28;20031;-35
2021/04/30 06:54:16;;;;;;;130.18;56.42;;;7.60;85.50;;;;;;5094241;28;20027;-35
2021/04/30 06:56:42;;;;;;;133.27;56.72;;;7.60;85.60;;;;;;5093493;28;20092;-37
2021/04/30 06:59:08;;;;;;;135.90;58.83;;;7.60;85.90;;;;;;5093965;28;20038;-35
2021/04/30 07:01:34;;;;;;;138.07;57.45;;;7.90;84.40;;;;;;5093541;28;20042;-37
2021/04/30 07:03:59;;;;;;;129.57;56.58;;;7.90;84.10;;;;;;5092182;28;20043;-35
2021/04/30 07:06:25;;;;;;;132.10;57.03;;;7.90;84.20;;;;;;5093518;28;20044;-36
2021/04/30 07:08:51;;;;;;;122.88;55.30;;;8.20;83.50;;;;;;5093473;28;20506;-35
2021/04/30 07:11:17;;;;;;;142.07;59.28;;;7.90;83.80;;;;;;5093956;28;20039;-35
2021/04/30 07:13:42;;;;;;;134.60;59.42;;;7.90;83.90;;;;;;5094018;28;20028;-46
2021/04/30 07:16:08;;;;;;;125.05;53.45;;;7.80;85.10;;;;;;5093996;28;20379;-35
2021/04/30 07:18:34;;;;;;;122.75;54.80;;;7.80;84.30;;;;;;5094123;28;20052;-35
2021/04/30 07:21:01;;;;;;;120.00;54.17;;;7.90;84.00;;;;;;5093780;28;20032;-36
2021/04/30 07:23:28;;;;;;;126.68;56.30;;;8.00;83.70;;;;;;5093530;28;20034;-36
2021/04/30 07:25:53;;;;;;;132.73;57.45;;;8.10;83.70;;;;;;5093643;28;20021;-35
2021/04/30 07:28:23;;;;;;;123.10;57.20;;;8.10;83.20;;;;;;5093777;28;20022;-39
2021/04/30 07:30:49;;;;;;;140.60;59.35;;;8.20;83.20;;;;;;5092305;28;20048;-37
2021/04/30 07:33:15;;;;;;;122.05;55.58;;;8.10;83.20;;;;;;5093778;28;20074;-39
2021/04/30 07:35:41;;;;;;;118.38;55.50;;;8.00;83.70;;;;;;5093050;28;20114;-35
2021/04/30 07:38:09;;;;;;;143.68;55.85;;;8.00;84.20;;;;;;5091901;28;20032;-36
2021/04/30 07:40:36;;;;;;;134.52;58.15;;;8.00;83.80;;;;;;5092957;28;20115;-36
2021/04/30 07:43:02;;;;;;;147.27;62.55;;;7.80;84.90;;;;;;5093120;28;20027;-37
2021/04/30 07:45:28;;;;;;;133.20;58.50;;;7.90;84.80;;;;;;5093552;28;20027;-37
2021/04/30 07:47:53;;;;;;;156.68;64.10;;;7.90;84.10;;;;;;5092930;28;20529;-36
2021/04/30 07:50:19;;;;;;;131.88;57.90;;;7.90;84.60;;;;;;5092615;28;20559;-36
2021/04/30 07:52:44;;;;;;;133.73;56.38;;;7.80;84.80;;;;;;5092785;28;20028;-36
2021/04/30 07:55:11;;;;;;;125.90;52.00;;;8.20;83.90;;;;;;5093499;28;20023;-37
2021/04/30 07:57:38;;;;;;;125.65;58.53;;;8.20;83.00;;;;;;5092564;28;20031;-35
2021/04/30 08:00:05;;;;;;;108.28;53.10;;;8.10;83.90;;;;;;5092543;28;20028;-34
2021/04/30 08:02:31;;;;;;;121.32;54.00;;;8.10;83.10;;;;;;5092731;28;20028;-35
2021/04/30 08:04:57;;;;;;;117.68;51.25;;;8.20;82.90;;;;;;5092791;28;20179;-36
2021/04/30 08:07:22;;;;;;;111.85;50.63;;;7.80;84.60;;;;;;5092903;28;20070;-35
2021/04/30 08:09:48;;;;;;;130.57;56.22;;;7.80;85.30;;;;;;5091768;28;20115;-35
2021/04/30 08:12:16;;;;;;;117.28;54.67;;;8.00;83.80;;;;;;5092287;28;20103;-35
2021/04/30 08:14:42;;;;;;;109.68;50.72;;;8.10;84.20;;;;;;5092726;28;20030;-36
2021/04/30 08:17:08;;;;;;;124.70;54.22;;;7.70;85.00;;;;;;5092240;28;20025;-36
2021/04/30 08:19:33;;;;;;;115.07;49.92;;;7.70;85.70;;;;;;5092267;28;20077;-36
2021/04/30 08:21:59;;;;;;;118.15;51.50;;;7.70;85.50;;;;;;5092211;28;20028;-36
2021/04/30 08:24:25;;;;;;;112.18;50.17;;;7.80;85.60;;;;;;5073802;28;20119;-35
2021/04/30 08:26:50;;;;;;;119.85;52.88;;;8.00;84.40;;;;;;5092448;28;20118;-35
2021/04/30 08:29:17;;;;;;;107.22;50.00;;;7.70;85.60;;;;;;5093268;28;20036;-36
2021/04/30 08:31:43;;;;;;;99.07;48.05;;;7.80;85.70;;;;;;5092555;28;20056;-37
2021/04/30 08:34:09;;;;;;;122.13;55.78;;;8.10;84.90;;;;;;5092378;28;20064;-35
2021/04/30 08:36:35;;;;;;;110.10;50.75;;;7.90;84.30;;;;;;5092102;28;20028;-35
2021/04/30 08:39:02;;;;;;;112.07;49.10;;;8.10;84.00;;;;;;5092680;28;20384;-36
2021/04/30 08:41:29;;;;;;;99.00;50.92;;;8.30;83.20;;;;;;5090560;28;20024;-34
2021/04/30 08:43:55;;;;;;;98.10;47.25;;;8.10;83.70;;;;;;5092259;28;20052;-35
2021/04/30 08:46:20;;;;;;;86.82;43.83;;;8.20;83.60;;;;;;5092200;28;20137;-36
2021/04/30 08:48:46;;;;;;;92.70;46.20;;;8.50;82.40;;;;;;5091881;28;20025;-35
2021/04/30 08:51:13;;;;;;;113.28;48.97;;;8.20;83.60;;;;;;5092057;28;20422;-36
2021/04/30 08:53:42;;;;;;;114.25;49.88;;;7.70;85.70;;;;;;5091843;28;20031;-35
2021/04/30 08:56:08;;;;;;;106.38;54.25;;;8.00;84.50;;;;;;5091932;28;20043;-38
2021/04/30 08:58:37;;;;;;;122.28;47.88;;;7.80;85.40;;;;;;5091931;28;20032;-37
2021/04/30 09:01:04;;;;;;;108.03;47.75;;;7.80;85.40;;;;;;5092320;28;20081;-34
2021/04/30 09:03:32;;;;;;;105.93;46.85;;;8.10;84.10;;;;;;5090708;28;20048;-35
2021/04/30 09:05:59;;;;;;;102.00;50.00;;;8.30;83.20;;;;;;5093748;28;20028;-35
2021/04/30 09:08:26;;;;;;;100.00;46.97;;;8.20;84.00;;;;;;5095818;28;20397;-35
2021/04/30 09:10:52;;;;;;;103.28;49.03;;;8.00;84.40;;;;;;5095494;28;20027;-35
2021/04/30 09:13:21;;;;;;;115.03;49.53;;;8.30;83.50;;;;;;5095473;28;20048;-35
2021/04/30 09:15:49;;;;;;;108.88;44.67;;;8.40;83.20;;;;;;5095017;28;20079;-35
2021/04/30 09:18:21;;;;;;;92.97;46.45;;;8.30;82.60;;;;;;5095382;28;20028;-35
2021/04/30 09:20:48;;;;;;;99.38;48.60;;;7.90;84.70;;;;;;5095202;28;20501;-35
2021/04/30 09:23:40;;;;;;;103.63;47.00;;;7.80;85.40;;;;;;5094939;28;20028;-35
2021/04/30 09:26:24;;;;;;;109.10;53.20;;;8.10;84.30;;;;;;5094666;28;20016;-35
2021/04/30 09:29:08;;;;;;;104.18;47.85;;;8.50;82.60;;;;;;5095120;28;20100;-36
2021/04/30 09:31:40;;;;;;;105.03;49.78;;;8.30;83.40;;;;;;5093264;28;20132;-36
2021/04/30 09:34:15;;;;;;;95.85;48.08;;;8.50;83.30;;;;;;5095333;28;20028;-35
2021/04/30 09:37:00;;;;;;;87.40;43.33;;;8.70;82.40;;;;;;5094374;28;20025;-36
2021/04/30 09:39:26;;;;;;;102.78;49.85;;;8.30;83.10;;;;;;5094750;28;20032;-35
2021/04/30 09:42:11;;;;;;;106.22;47.50;;;8.20;84.00;;;;;;5094814;28;20024;-35
2021/04/30 09:44:42;;;;;;;96.95;50.33;;;8.50;82.70;;;;;;5093155;28;20031;-35
2021/04/30 09:47:25;;;;;;;116.18;50.05;;;8.50;82.20;;;;;;5093027;28;20028;-35
2021/04/30 09:49:54;;;;;;;99.72;45.20;;;8.40;82.30;;;;;;5094221;28;20049;-35
2021/04/30 09:52:21;;;;;;;106.30;49.70;;;8.50;82.60;;;;;;5093558;28;20020;-35
2021/04/30 09:54:48;;;;;;;116.50;52.05;;;8.40;82.80;;;;;;5093660;28;20417;-35
2021/04/30 09:57:22;;;;;;;97.13;46.45;;;8.70;81.70;;;;;;5093467;28;20028;-34
2021/04/30 09:59:57;;;;;;;93.95;42.83;;;8.60;81.60;;;;;;5094448;28;20068;-34
2021/04/30 10:02:28;;;;;;;94.35;45.13;;;8.50;81.80;;;;;;5094701;28;20028;-34
2021/04/30 10:04:56;;;;;;;86.05;43.80;;;8.40;82.30;;;;;;5092886;28;20372;-35
2021/04/30 10:07:33;;;;;;;89.22;42.58;;;8.80;81.30;;;;;;5094865;28;20039;-34
2021/04/30 10:10:11;;;;;;;80.68;40.58;;;9.30;79.30;;;;;;5094576;28;20024;-36
2021/04/30 10:12:42;;;;;;;71.95;38.15;;;9.80;76.60;;;;;;5094340;28;20039;-35
2021/04/30 10:15:08;;;;;;;;;;;10.30;74.60;;;;;;5093132;28;20373;-35
2021/04/30 10:17:34;;;;;;;64.78;34.65;;;10.50;73.20;;;;;;5094262;28;20357;-35
2021/04/30 10:20:00;;;;;;;68.97;34.80;;;10.30;74.40;;;;;;5094418;28;20085;-35
2021/04/30 10:22:27;;;;;;;78.40;38.42;;;9.80;75.30;;;;;;5094357;28;20024;-35
2021/04/30 10:24:58;;;;;;;72.28;35.47;;;10.00;75.20;;;;;;5094596;28;20028;-36
2021/04/30 10:27:35;;;;;;;74.95;37.20;;;10.20;74.40;;;;;;5094081;28;20020;-35
2021/04/30 10:30:17;;;;;;;76.82;42.38;;;10.20;74.10;;;;;;5094456;28;20015;-35
2021/04/30 10:32:51;;;;;;;72.15;41.22;;;9.80;74.90;;;;;;5094643;28;20439;-35
2021/04/30 10:35:32;;;;;;;72.72;37.78;;;10.00;74.40;;;;;;5094458;28;20028;-35
2021/04/30 10:38:02;;;;;;;72.88;40.72;;;9.80;74.80;;;;;;5094772;28;20433;-36
2021/04/30 10:40:27;;;;;;;69.25;38.40;;;9.90;74.80;;;;;;5094095;28;20020;-34
2021/04/30 10:42:53;;;;;;;71.07;39.42;;;9.50;76.00;;;;;;5094354;28;20491;-36
2021/04/30 10:45:19;;;;;;;69.45;37.92;;;10.00;75.00;;;;;;5095592;28;20023;-36
2021/04/30 10:48:07;;;;;;;70.75;39.15;;;10.10;74.40;;;;;;5093764;28;20163;-35
2021/04/30 10:50:35;;;;;;;68.60;37.45;;;9.90;74.20;;;;;;5092474;28;20136;-35
2021/04/30 10:53:22;;;;;;;69.72;38.63;;;9.90;74.70;;;;;;5092513;28;20024;-37
2021/04/30 10:55:48;;;;;;;77.90;38.97;;;10.20;74.10;;;;;;5094202;28;20066;-36
2021/04/30 10:58:38;;;;;;;69.90;38.40;;;10.10;74.20;;;;;;5092626;28;20054;-36
2021/04/30 11:01:28;;;;;;;67.60;37.13;;;10.50;73.20;;;;;;5093555;28;20024;-35
2021/04/30 11:04:11;;;;;;;60.60;35.83;;;10.40;73.00;;;;;;5093853;28;20150;-35
2021/04/30 11:06:39;;;;;;;66.22;37.25;;;11.00;70.50;;;;;;5075562;28;20463;-35
2021/04/30 11:09:10;;;;;;;63.45;33.40;;;11.00;70.30;;;;;;5094576;28;20050;-36
2021/04/30 11:11:41;;;;;;;63.15;36.35;;;10.80;70.70;;;;;;5094239;28;20028;-37
2021/04/30 11:14:31;;;;;;;68.75;36.28;;;10.80;71.20;;;;;;5091814;28;20509;-35
2021/04/30 11:16:58;;;;;;;58.45;34.00;;;10.70;70.50;;;;;;5093384;28;20024;-35
2021/04/30 11:19:27;;;;;;;70.55;37.58;;;10.50;71.80;;;;;;5092832;28;20035;-36
2021/04/30 11:21:56;;;;;;;70.22;37.00;;;10.40;71.50;;;;;;5091703;28;20552;-35
2021/04/30 11:24:42;;;;;;;69.55;35.88;;;9.90;74.20;;;;;;5093343;28;20437;-36
2021/04/30 11:27:07;;;;;;;64.13;34.45;;;10.30;73.10;;;;;;5093412;28;20467;-36
2021/04/30 11:29:33;;;;;;;69.28;32.80;;;10.40;71.50;;;;;;5092405;28;20077;-36
2021/04/30 11:32:24;;;;;;;68.60;31.98;;;10.20;71.90;;;;;;5093025;28;20354;-36
2021/04/30 11:35:00;;;;;;;64.10;36.22;;;10.30;71.90;;;;;;5093170;28;20111;-36
2021/04/30 11:37:33;;;;;;;72.95;35.97;;;10.50;71.90;;;;;;5092813;28;20083;-35
2021/04/30 11:40:00;;;;;;;71.45;35.63;;;10.60;71.30;;;;;;5093656;28;20036;-37
2021/04/30 11:42:34;;;;;;;74.97;36.85;;;11.00;69.80;;;;;;5093122;28;20472;-36
2021/04/30 11:45:03;;;;;;;70.85;34.90;;;10.80;70.30;;;;;;5092956;28;20080;-36
2021/04/30 11:47:39;;;;;;;73.68;36.13;;;10.80;70.20;;;;;;5093264;28;20357;-36
2021/04/30 11:50:08;;;;;;;73.40;38.05;;;10.40;71.60;;;;;;5093057;28;20036;-35
2021/04/30 11:52:38;;;;;;;76.32;38.45;;;10.00;72.80;;;;;;5093352;28;20508;-35
2021/04/30 11:55:09;;;;;;;74.17;38.83;;;10.40;71.80;;;;;;5093482;28;20024;-35
2021/04/30 11:57:35;;;;;;;81.72;42.22;;;10.60;71.30;;;;;;5093741;28;20105;-37
2021/04/30 12:00:01;;;;;;;77.55;40.80;;;10.80;70.50;;;;;;5091936;28;20134;-35
2021/04/30 12:02:29;;;;;;;76.43;37.80;;;11.50;68.10;;;;;;5093267;28;20098;-35
2021/04/30 12:04:55;;;;;;;63.05;34.90;;;12.50;64.10;;;;;;5091951;28;20028;-35
2021/04/30 12:07:24;;;;;;;63.10;34.00;;;12.10;64.60;;;;;;5093685;28;20023;-36
2021/04/30 12:09:50;;;;;;;62.83;35.08;;;12.40;63.40;;;;;;5093743;28;20059;-36
2021/04/30 12:12:22;;;;;;;66.30;33.42;;;13.80;59.40;;;;;;5092065;28;20024;-36
2021/04/30 12:14:53;;;;;;;62.00;31.58;;;14.20;56.50;;;;;;5092838;28;20028;-36
2021/04/30 12:17:25;;;;;;;53.30;30.52;;;14.10;56.80;;;;;;5092622;28;20027;-36
2021/04/30 12:19:59;;;;;;;60.95;35.47;;;13.60;58.70;;;;;;5091332;28;20031;-36
2021/04/30 12:22:25;;;;;;;59.42;33.90;;;13.70;57.70;;;;;;5092699;28;20540;-35
2021/04/30 12:24:51;;;;;;;59.10;34.40;;;12.90;60.30;;;;;;5092621;28;20031;-41
2021/04/30 12:27:30;;;;;;;56.72;31.65;;;12.70;61.60;;;;;;5093208;28;20028;-35
2021/04/30 12:29:56;;;;;;;57.35;32.28;;;13.30;59.40;;;;;;5092712;28;20021;-35
2021/04/30 12:32:27;;;;;;;51.13;29.30;;;14.30;55.80;;;;;;5092203;28;20028;-36
2021/04/30 12:34:57;;;;;;;49.00;31.60;;;13.80;57.30;;;;;;5094253;28;20028;-35
2021/04/30 12:37:24;;;;;;;47.33;29.27;;;14.40;54.70;;;;;;5092375;28;20047;-35